sensor_id;sensor_type;location;lat;lon;timestamp;temperature;humidity
285;DHT22;127;48.770;9.212;2023-08-07T00:01:58;11.30;99.90
285;DHT22;127;48.770;9.212;2023-08-07T00:04:37;11.30;99.90
285;DHT22;127;48.770;9.212;2023-08-07T00:07:20;11.30;99.90
285;DHT22;127;48.770;9.212;2023-08-07T00:10:33;11.30;99.90
285;DHT22;127;48.770;9.212;2023-08-07T00:13:19;11.30;99.90
285;DHT22;127;48.770;9.212;2023-08-07T00:15:50;11.40;99.90
285;DHT22;127;48.770;9.212;2023-08-07T00:18:22;11.30;99.90
285;DHT22;127;48.770;9.212;2023-08-07T00:21:08;11.30;99.90
285;DHT22;127;48.770;9.212;2023-08-07T00:23:44;11.30;99.90
285;DHT22;127;48.770;9.212;2023-08-07T00:26:37;11.20;99.90
285;DHT22;127;48.770;9.212;2023-08-07T00:30:11;11.40;99.90
285;DHT22;127;48.770;9.212;2023-08-07T00:32:43;11.50;99.90
285;DHT22;127;48.770;9.212;2023-08-07T00:35:27;11.50;99.90
285;DHT22;127;48.770;9.212;2023-08-07T00:38:13;11.60;99.90
285;DHT22;127;48.770;9.212;2023-08-07T00:40:59;11.50;99.90
285;DHT22;127;48.770;9.212;2023-08-07T00:43:36;12.30;99.90
285;DHT22;127;48.770;9.212;2023-08-07T00:46:07;11.70;99.90
285;DHT22;127;48.770;9.212;2023-08-07T00:48:40;11.60;99.90
285;DHT22;127;48.770;9.212;2023-08-07T00:51:11;11.70;99.90
285;DHT22;127;48.770;9.212;2023-08-07T00:53:41;11.70;99.90
285;DHT22;127;48.770;9.212;2023-08-07T00:56:23;11.60;99.90
285;DHT22;127;48.770;9.212;2023-08-07T00:59:05;11.60;99.90
285;DHT22;127;48.770;9.212;2023-08-07T01:01:37;11.70;99.90
285;DHT22;127;48.770;9.212;2023-08-07T01:04:07;11.60;99.90
285;DHT22;127;48.770;9.212;2023-08-07T01:06:47;11.70;99.90
285;DHT22;127;48.770;9.212;2023-08-07T01:09:44;11.50;99.90
285;DHT22;127;48.770;9.212;2023-08-07T01:12:20;11.60;99.90
285;DHT22;127;48.770;9.212;2023-08-07T01:15:01;11.50;99.90
285;DHT22;127;48.770;9.212;2023-08-07T01:17:34;11.70;99.90
285;DHT22;127;48.770;9.212;2023-08-07T01:20:04;11.70;99.90
285;DHT22;127;48.770;9.212;2023-08-07T01:22:37;11.60;99.90
285;DHT22;127;48.770;9.212;2023-08-07T01:25:16;11.90;99.90
285;DHT22;127;48.770;9.212;2023-08-07T01:27:52;11.70;99.90
285;DHT22;127;48.770;9.212;2023-08-07T01:30:34;11.60;99.90
285;DHT22;127;48.770;9.212;2023-08-07T01:33:19;11.70;99.90
285;DHT22;127;48.770;9.212;2023-08-07T01:35:53;11.80;99.90
285;DHT22;127;48.770;9.212;2023-08-07T01:41:33;11.60;99.90
285;DHT22;127;48.770;9.212;2023-08-07T01:44:13;11.70;99.90
285;DHT22;127;48.770;9.212;2023-08-07T01:46:46;11.30;99.90
285;DHT22;127;48.770;9.212;2023-08-07T01:49:20;11.70;99.90
285;DHT22;127;48.770;9.212;2023-08-07T01:51:53;11.80;99.90
285;DHT22;127;48.770;9.212;2023-08-07T01:54:29;11.70;99.90
285;DHT22;127;48.770;9.212;2023-08-07T01:56:58;11.80;99.90
285;DHT22;127;48.770;9.212;2023-08-07T01:59:28;11.70;99.90
285;DHT22;127;48.770;9.212;2023-08-07T02:01:57;11.90;99.90
285;DHT22;127;48.770;9.212;2023-08-07T02:04:26;11.90;99.90
285;DHT22;127;48.770;9.212;2023-08-07T02:07:03;11.80;99.90
285;DHT22;127;48.770;9.212;2023-08-07T02:09:55;11.70;99.90
285;DHT22;127;48.770;9.212;2023-08-07T02:12:52;11.20;99.90
285;DHT22;127;48.770;9.212;2023-08-07T02:15:27;12.10;99.90
285;DHT22;127;48.770;9.212;2023-08-07T02:17:56;11.80;99.90
285;DHT22;127;48.770;9.212;2023-08-07T02:20:25;12.00;99.90
285;DHT22;127;48.770;9.212;2023-08-07T02:23:21;11.70;99.90
285;DHT22;127;48.770;9.212;2023-08-07T02:25:57;11.80;99.90
285;DHT22;127;48.770;9.212;2023-08-07T02:28:28;11.80;99.90
285;DHT22;127;48.770;9.212;2023-08-07T02:31:11;11.80;99.90
285;DHT22;127;48.770;9.212;2023-08-07T02:33:41;11.80;99.90
285;DHT22;127;48.770;9.212;2023-08-07T02:36:12;11.80;99.90
285;DHT22;127;48.770;9.212;2023-08-07T02:38:41;11.90;99.90
285;DHT22;127;48.770;9.212;2023-08-07T02:41:32;11.70;99.90
285;DHT22;127;48.770;9.212;2023-08-07T02:44:01;11.70;99.90
285;DHT22;127;48.770;9.212;2023-08-07T02:46:30;11.30;99.90
285;DHT22;127;48.770;9.212;2023-08-07T02:49:14;11.60;99.90
285;DHT22;127;48.770;9.212;2023-08-07T02:51:49;11.60;99.90
285;DHT22;127;48.770;9.212;2023-08-07T02:54:19;11.90;99.90
285;DHT22;127;48.770;9.212;2023-08-07T02:57:00;11.50;99.90
285;DHT22;127;48.770;9.212;2023-08-07T02:59:34;11.50;99.90
285;DHT22;127;48.770;9.212;2023-08-07T03:02:14;11.50;99.90
285;DHT22;127;48.770;9.212;2023-08-07T03:04:43;11.70;99.90
285;DHT22;127;48.770;9.212;2023-08-07T03:07:17;11.60;99.90
285;DHT22;127;48.770;9.212;2023-08-07T03:09:48;11.60;99.90
285;DHT22;127;48.770;9.212;2023-08-07T03:12:22;11.10;99.90
285;DHT22;127;48.770;9.212;2023-08-07T03:14:58;11.40;99.90
285;DHT22;127;48.770;9.212;2023-08-07T03:17:28;11.40;99.90
285;DHT22;127;48.770;9.212;2023-08-07T03:20:12;11.30;99.90
285;DHT22;127;48.770;9.212;2023-08-07T03:22:46;11.30;99.90
285;DHT22;127;48.770;9.212;2023-08-07T03:25:18;11.50;99.90
285;DHT22;127;48.770;9.212;2023-08-07T03:28:06;11.30;99.90
285;DHT22;127;48.770;9.212;2023-08-07T03:30:39;11.30;99.90
285;DHT22;127;48.770;9.212;2023-08-07T03:33:25;11.30;99.90
285;DHT22;127;48.770;9.212;2023-08-07T03:36:02;11.40;99.90
285;DHT22;127;48.770;9.212;2023-08-07T03:38:35;11.30;99.90
285;DHT22;127;48.770;9.212;2023-08-07T03:41:08;11.30;99.90
285;DHT22;127;48.770;9.212;2023-08-07T03:43:50;11.40;99.90
285;DHT22;127;48.770;9.212;2023-08-07T03:46:26;11.70;99.90
285;DHT22;127;48.770;9.212;2023-08-07T03:49:21;11.30;99.90
285;DHT22;127;48.770;9.212;2023-08-07T03:51:52;11.40;99.90
285;DHT22;127;48.770;9.212;2023-08-07T03:54:41;11.30;99.90
285;DHT22;127;48.770;9.212;2023-08-07T03:57:20;11.40;99.90
285;DHT22;127;48.770;9.212;2023-08-07T04:00:01;11.40;99.90
285;DHT22;127;48.770;9.212;2023-08-07T04:02:33;11.40;99.90
285;DHT22;127;48.770;9.212;2023-08-07T04:05:02;11.40;99.90
285;DHT22;127;48.770;9.212;2023-08-07T04:07:31;11.40;99.90
285;DHT22;127;48.770;9.212;2023-08-07T04:10:04;10.50;99.90
285;DHT22;127;48.770;9.212;2023-08-07T04:12:35;11.30;99.90
285;DHT22;127;48.770;9.212;2023-08-07T04:15:19;11.30;99.90
285;DHT22;127;48.770;9.212;2023-08-07T04:17:48;10.90;99.90
285;DHT22;127;48.770;9.212;2023-08-07T04:20:20;11.40;99.90
285;DHT22;127;48.770;9.212;2023-08-07T04:23:06;11.70;99.90
285;DHT22;127;48.770;9.212;2023-08-07T04:25:35;11.80;99.90
285;DHT22;127;48.770;9.212;2023-08-07T04:28:07;11.30;99.90
285;DHT22;127;48.770;9.212;2023-08-07T04:30:45;12.10;99.90
285;DHT22;127;48.770;9.212;2023-08-07T04:33:19;11.60;99.90
285;DHT22;127;48.770;9.212;2023-08-07T04:35:48;11.50;99.90
285;DHT22;127;48.770;9.212;2023-08-07T04:38:17;12.10;99.90
285;DHT22;127;48.770;9.212;2023-08-07T04:40:48;11.30;99.90
285;DHT22;127;48.770;9.212;2023-08-07T04:43:29;11.30;99.90
285;DHT22;127;48.770;9.212;2023-08-07T04:46:05;11.40;99.90
285;DHT22;127;48.770;9.212;2023-08-07T04:48:49;12.30;99.90
285;DHT22;127;48.770;9.212;2023-08-07T04:51:20;11.50;99.90
285;DHT22;127;48.770;9.212;2023-08-07T04:53:58;11.60;99.90
285;DHT22;127;48.770;9.212;2023-08-07T04:56:28;11.60;99.90
285;DHT22;127;48.770;9.212;2023-08-07T04:59:01;11.70;99.90
285;DHT22;127;48.770;9.212;2023-08-07T05:01:38;11.70;99.90
285;DHT22;127;48.770;9.212;2023-08-07T05:04:10;11.60;99.90
285;DHT22;127;48.770;9.212;2023-08-07T05:06:50;11.70;99.90
285;DHT22;127;48.770;9.212;2023-08-07T05:09:19;11.70;99.90
285;DHT22;127;48.770;9.212;2023-08-07T05:11:48;11.70;99.90
285;DHT22;127;48.770;9.212;2023-08-07T05:14:17;11.80;99.90
285;DHT22;127;48.770;9.212;2023-08-07T05:16:50;11.80;99.90
285;DHT22;127;48.770;9.212;2023-08-07T05:19:23;11.50;99.90
285;DHT22;127;48.770;9.212;2023-08-07T05:22:00;11.90;99.90
285;DHT22;127;48.770;9.212;2023-08-07T05:24:36;11.90;99.90
285;DHT22;127;48.770;9.212;2023-08-07T05:27:12;11.90;99.90
285;DHT22;127;48.770;9.212;2023-08-07T05:29:45;12.00;99.90
285;DHT22;127;48.770;9.212;2023-08-07T05:32:27;12.00;99.90
285;DHT22;127;48.770;9.212;2023-08-07T05:35:15;12.10;99.90
285;DHT22;127;48.770;9.212;2023-08-07T05:38:04;12.10;99.90
285;DHT22;127;48.770;9.212;2023-08-07T05:40:33;12.10;99.90
285;DHT22;127;48.770;9.212;2023-08-07T05:43:03;12.20;99.90
285;DHT22;127;48.770;9.212;2023-08-07T05:45:49;12.40;99.90
285;DHT22;127;48.770;9.212;2023-08-07T05:51:37;11.90;99.90
285;DHT22;127;48.770;9.212;2023-08-07T05:55:08;12.40;99.90
285;DHT22;127;48.770;9.212;2023-08-07T05:57:12;12.40;99.90
285;DHT22;127;48.770;9.212;2023-08-07T05:59:51;12.60;99.90
285;DHT22;127;48.770;9.212;2023-08-07T06:02:25;12.60;99.90
285;DHT22;127;48.770;9.212;2023-08-07T06:05:17;12.60;99.90
285;DHT22;127;48.770;9.212;2023-08-07T06:08:36;12.70;99.90
285;DHT22;127;48.770;9.212;2023-08-07T06:11:29;12.70;99.90
285;DHT22;127;48.770;9.212;2023-08-07T06:14:11;12.90;99.90
285;DHT22;127;48.770;9.212;2023-08-07T06:16:40;12.90;99.90
285;DHT22;127;48.770;9.212;2023-08-07T06:19:24;13.00;99.90
285;DHT22;127;48.770;9.212;2023-08-07T06:22:06;13.10;99.90
285;DHT22;127;48.770;9.212;2023-08-07T06:24:39;12.90;99.90
285;DHT22;127;48.770;9.212;2023-08-07T06:27:10;13.00;99.90
285;DHT22;127;48.770;9.212;2023-08-07T06:29:45;13.00;99.90
285;DHT22;127;48.770;9.212;2023-08-07T06:32:51;13.00;99.90
285;DHT22;127;48.770;9.212;2023-08-07T06:35:17;13.10;99.90
285;DHT22;127;48.770;9.212;2023-08-07T06:37:55;13.20;99.90
285;DHT22;127;48.770;9.212;2023-08-07T06:40:40;13.20;99.90
285;DHT22;127;48.770;9.212;2023-08-07T06:45:54;13.40;99.90
285;DHT22;127;48.770;9.212;2023-08-07T06:48:41;13.50;99.90
285;DHT22;127;48.770;9.212;2023-08-07T06:51:16;13.50;99.90
285;DHT22;127;48.770;9.212;2023-08-07T06:54:26;13.50;99.90
285;DHT22;127;48.770;9.212;2023-08-07T06:57:04;13.40;99.90
285;DHT22;127;48.770;9.212;2023-08-07T06:59:56;13.50;99.90
285;DHT22;127;48.770;9.212;2023-08-07T07:04:45;13.70;99.90
285;DHT22;127;48.770;9.212;2023-08-07T07:05:58;13.90;99.90
285;DHT22;127;48.770;9.212;2023-08-07T07:08:55;14.00;99.90
285;DHT22;127;48.770;9.212;2023-08-07T07:11:27;14.10;99.90
285;DHT22;127;48.770;9.212;2023-08-07T07:14:06;14.10;99.90
285;DHT22;127;48.770;9.212;2023-08-07T07:16:36;14.30;99.90
285;DHT22;127;48.770;9.212;2023-08-07T07:19:09;14.30;99.90
285;DHT22;127;48.770;9.212;2023-08-07T07:21:38;14.50;99.90
285;DHT22;127;48.770;9.212;2023-08-07T07:24:23;14.50;99.90
285;DHT22;127;48.770;9.212;2023-08-07T07:27:11;14.20;99.90
285;DHT22;127;48.770;9.212;2023-08-07T07:30:15;14.30;99.90
285;DHT22;127;48.770;9.212;2023-08-07T07:33:10;14.40;99.90
285;DHT22;127;48.770;9.212;2023-08-07T07:39:44;14.30;99.90
285;DHT22;127;48.770;9.212;2023-08-07T07:42:14;14.30;99.90
285;DHT22;127;48.770;9.212;2023-08-07T07:44:59;14.40;99.90
285;DHT22;127;48.770;9.212;2023-08-07T07:47:35;14.50;99.90
285;DHT22;127;48.770;9.212;2023-08-07T07:50:11;14.80;99.90
285;DHT22;127;48.770;9.212;2023-08-07T07:52:41;15.00;99.90
285;DHT22;127;48.770;9.212;2023-08-07T07:55:12;15.20;99.90
285;DHT22;127;48.770;9.212;2023-08-07T07:57:59;15.40;99.90
285;DHT22;127;48.770;9.212;2023-08-07T08:00:33;15.50;99.90
285;DHT22;127;48.770;9.212;2023-08-07T08:03:03;15.70;99.90
285;DHT22;127;48.770;9.212;2023-08-07T08:05:45;15.60;99.90
285;DHT22;127;48.770;9.212;2023-08-07T08:08:35;15.70;99.90
285;DHT22;127;48.770;9.212;2023-08-07T08:11:06;15.60;99.90
285;DHT22;127;48.770;9.212;2023-08-07T08:14:06;15.50;99.90
285;DHT22;127;48.770;9.212;2023-08-07T08:16:36;14.60;99.90
285;DHT22;127;48.770;9.212;2023-08-07T08:19:25;15.00;99.90
285;DHT22;127;48.770;9.212;2023-08-07T08:21:59;14.30;99.90
285;DHT22;127;48.770;9.212;2023-08-07T08:24:47;14.50;99.90
285;DHT22;127;48.770;9.212;2023-08-07T08:27:16;14.50;99.90
285;DHT22;127;48.770;9.212;2023-08-07T08:29:50;14.50;99.90
285;DHT22;127;48.770;9.212;2023-08-07T08:35:42;15.00;99.90
285;DHT22;127;48.770;9.212;2023-08-07T08:38:28;15.30;99.90
285;DHT22;127;48.770;9.212;2023-08-07T08:41:02;15.50;99.90
285;DHT22;127;48.770;9.212;2023-08-07T08:43:38;15.90;99.90
285;DHT22;127;48.770;9.212;2023-08-07T08:46:31;15.90;99.90
285;DHT22;127;48.770;9.212;2023-08-07T08:49:35;16.00;99.90
285;DHT22;127;48.770;9.212;2023-08-07T08:58:26;16.10;99.90
285;DHT22;127;48.770;9.212;2023-08-07T09:01:04;16.20;99.90
285;DHT22;127;48.770;9.212;2023-08-07T09:03:40;16.40;99.90
285;DHT22;127;48.770;9.212;2023-08-07T09:09:32;15.80;99.90
285;DHT22;127;48.770;9.212;2023-08-07T09:12:16;16.10;99.90
285;DHT22;127;48.770;9.212;2023-08-07T09:15:03;16.60;99.90
285;DHT22;127;48.770;9.212;2023-08-07T09:17:38;16.00;99.90
285;DHT22;127;48.770;9.212;2023-08-07T09:21:24;17.20;99.90
285;DHT22;127;48.770;9.212;2023-08-07T09:23:59;17.50;99.90
285;DHT22;127;48.770;9.212;2023-08-07T09:28:46;17.50;99.90
285;DHT22;127;48.770;9.212;2023-08-07T09:30:14;16.60;99.90
285;DHT22;127;48.770;9.212;2023-08-07T09:40:00;16.70;99.90
285;DHT22;127;48.770;9.212;2023-08-07T09:42:35;16.90;99.90
285;DHT22;127;48.770;9.212;2023-08-07T09:45:31;16.90;99.90
285;DHT22;127;48.770;9.212;2023-08-07T09:48:13;17.70;99.90
285;DHT22;127;48.770;9.212;2023-08-07T09:50:51;18.40;99.90
285;DHT22;127;48.770;9.212;2023-08-07T09:53:33;18.60;99.90
285;DHT22;127;48.770;9.212;2023-08-07T09:56:31;18.90;99.90
285;DHT22;127;48.770;9.212;2023-08-07T09:59:22;18.00;99.90
285;DHT22;127;48.770;9.212;2023-08-07T10:01:54;18.60;99.90
285;DHT22;127;48.770;9.212;2023-08-07T10:04:23;18.60;99.90
285;DHT22;127;48.770;9.212;2023-08-07T10:07:02;18.70;99.90
285;DHT22;127;48.770;9.212;2023-08-07T10:09:44;18.70;99.90
285;DHT22;127;48.770;9.212;2023-08-07T10:12:36;18.70;99.90
285;DHT22;127;48.770;9.212;2023-08-07T10:15:21;19.10;99.90
285;DHT22;127;48.770;9.212;2023-08-07T10:18:10;20.80;99.90
285;DHT22;127;48.770;9.212;2023-08-07T10:20:52;22.00;99.90
285;DHT22;127;48.770;9.212;2023-08-07T10:23:24;23.60;99.90
285;DHT22;127;48.770;9.212;2023-08-07T10:26:28;22.60;99.90
285;DHT22;127;48.770;9.212;2023-08-07T10:29:23;22.50;99.90
285;DHT22;127;48.770;9.212;2023-08-07T10:32:29;22.00;99.90
285;DHT22;127;48.770;9.212;2023-08-07T10:35:30;21.80;99.90
285;DHT22;127;48.770;9.212;2023-08-07T10:38:11;21.30;99.90
285;DHT22;127;48.770;9.212;2023-08-07T10:41:01;20.80;99.90
285;DHT22;127;48.770;9.212;2023-08-07T10:44:09;18.90;99.90
285;DHT22;127;48.770;9.212;2023-08-07T10:46:57;18.80;99.90
285;DHT22;127;48.770;9.212;2023-08-07T10:50:56;18.50;99.90
285;DHT22;127;48.770;9.212;2023-08-07T10:52:51;18.40;99.90
285;DHT22;127;48.770;9.212;2023-08-07T10:55:43;18.00;99.90
285;DHT22;127;48.770;9.212;2023-08-07T10:58:33;17.20;99.90
285;DHT22;127;48.770;9.212;2023-08-07T11:01:40;17.40;99.90
285;DHT22;127;48.770;9.212;2023-08-07T11:04:35;17.50;99.90
285;DHT22;127;48.770;9.212;2023-08-07T11:07:12;17.80;99.90
285;DHT22;127;48.770;9.212;2023-08-07T11:12:58;18.10;99.90
285;DHT22;127;48.770;9.212;2023-08-07T11:15:52;18.20;99.90
285;DHT22;127;48.770;9.212;2023-08-07T11:18:34;18.50;99.90
285;DHT22;127;48.770;9.212;2023-08-07T11:21:20;17.60;99.90
285;DHT22;127;48.770;9.212;2023-08-07T11:24:00;17.60;99.90
285;DHT22;127;48.770;9.212;2023-08-07T11:26:49;17.40;99.90
285;DHT22;127;48.770;9.212;2023-08-07T11:29:26;17.20;99.90
285;DHT22;127;48.770;9.212;2023-08-07T11:32:00;17.20;99.90
285;DHT22;127;48.770;9.212;2023-08-07T11:34:37;17.40;99.90
285;DHT22;127;48.770;9.212;2023-08-07T11:37:47;16.90;99.90
285;DHT22;127;48.770;9.212;2023-08-07T11:40:32;16.90;99.90
285;DHT22;127;48.770;9.212;2023-08-07T11:46:02;16.70;99.90
285;DHT22;127;48.770;9.212;2023-08-07T11:46:18;16.50;99.90
285;DHT22;127;48.770;9.212;2023-08-07T11:49:05;15.90;99.90
285;DHT22;127;48.770;9.212;2023-08-07T11:51:37;16.40;99.90
285;DHT22;127;48.770;9.212;2023-08-07T11:54:17;16.20;99.90
285;DHT22;127;48.770;9.212;2023-08-07T11:57:01;16.10;99.90
285;DHT22;127;48.770;9.212;2023-08-07T11:59:39;15.90;99.90
285;DHT22;127;48.770;9.212;2023-08-07T12:02:10;16.00;99.90
285;DHT22;127;48.770;9.212;2023-08-07T12:04:40;16.10;99.90
285;DHT22;127;48.770;9.212;2023-08-07T12:07:09;16.10;99.90
285;DHT22;127;48.770;9.212;2023-08-07T12:09:42;16.20;99.90
285;DHT22;127;48.770;9.212;2023-08-07T12:12:27;16.20;99.90
285;DHT22;127;48.770;9.212;2023-08-07T12:15:05;16.20;99.90
285;DHT22;127;48.770;9.212;2023-08-07T12:17:51;15.90;99.90
285;DHT22;127;48.770;9.212;2023-08-07T12:20:52;16.30;99.90
285;DHT22;127;48.770;9.212;2023-08-07T12:23:35;16.20;99.90
285;DHT22;127;48.770;9.212;2023-08-07T12:26:28;16.10;99.90
285;DHT22;127;48.770;9.212;2023-08-07T12:29:08;16.10;99.90
285;DHT22;127;48.770;9.212;2023-08-07T12:31:50;16.20;99.90
285;DHT22;127;48.770;9.212;2023-08-07T12:34:33;16.20;99.90
285;DHT22;127;48.770;9.212;2023-08-07T12:37:19;16.50;99.90
285;DHT22;127;48.770;9.212;2023-08-07T12:39:56;16.50;99.90
285;DHT22;127;48.770;9.212;2023-08-07T12:42:29;16.50;99.90
285;DHT22;127;48.770;9.212;2023-08-07T12:45:24;16.80;99.90
285;DHT22;127;48.770;9.212;2023-08-07T12:48:04;17.10;99.90
285;DHT22;127;48.770;9.212;2023-08-07T12:54:08;17.40;99.90
285;DHT22;127;48.770;9.212;2023-08-07T12:56:49;17.50;99.90
285;DHT22;127;48.770;9.212;2023-08-07T12:59:47;17.70;99.90
285;DHT22;127;48.770;9.212;2023-08-07T13:02:38;17.80;99.90
285;DHT22;127;48.770;9.212;2023-08-07T13:05:22;17.90;99.90
285;DHT22;127;48.770;9.212;2023-08-07T13:11:28;18.00;99.90
285;DHT22;127;48.770;9.212;2023-08-07T13:14:24;18.10;99.90
285;DHT22;127;48.770;9.212;2023-08-07T13:16:57;18.40;99.90
285;DHT22;127;48.770;9.212;2023-08-07T13:19:37;18.50;99.90
285;DHT22;127;48.770;9.212;2023-08-07T13:22:38;17.90;99.90
285;DHT22;127;48.770;9.212;2023-08-07T13:25:17;18.00;99.90
285;DHT22;127;48.770;9.212;2023-08-07T13:28:12;17.90;99.90
285;DHT22;127;48.770;9.212;2023-08-07T13:30:44;17.60;99.90
285;DHT22;127;48.770;9.212;2023-08-07T13:33:18;17.50;99.90
285;DHT22;127;48.770;9.212;2023-08-07T13:35:58;17.50;99.90
285;DHT22;127;48.770;9.212;2023-08-07T13:38:29;17.70;99.90
285;DHT22;127;48.770;9.212;2023-08-07T13:41:03;17.60;99.90
285;DHT22;127;48.770;9.212;2023-08-07T13:44:16;17.80;99.90
285;DHT22;127;48.770;9.212;2023-08-07T13:46:50;18.00;99.90
285;DHT22;127;48.770;9.212;2023-08-07T13:49:37;18.10;99.90
285;DHT22;127;48.770;9.212;2023-08-07T13:52:18;18.60;99.90
285;DHT22;127;48.770;9.212;2023-08-07T13:54:47;19.50;99.90
285;DHT22;127;48.770;9.212;2023-08-07T13:57:25;20.10;99.90
285;DHT22;127;48.770;9.212;2023-08-07T14:00:07;19.40;99.90
285;DHT22;127;48.770;9.212;2023-08-07T14:02:39;18.80;99.90
285;DHT22;127;48.770;9.212;2023-08-07T14:05:12;19.00;99.90
285;DHT22;127;48.770;9.212;2023-08-07T14:07:49;18.80;99.90
285;DHT22;127;48.770;9.212;2023-08-07T14:10:23;18.80;99.90
285;DHT22;127;48.770;9.212;2023-08-07T14:12:54;18.60;99.90
285;DHT22;127;48.770;9.212;2023-08-07T14:15:23;18.60;99.90
285;DHT22;127;48.770;9.212;2023-08-07T14:17:52;18.60;99.90
285;DHT22;127;48.770;9.212;2023-08-07T14:20:24;18.90;99.90
285;DHT22;127;48.770;9.212;2023-08-07T14:22:57;19.80;99.90
285;DHT22;127;48.770;9.212;2023-08-07T14:25:48;21.70;99.90
285;DHT22;127;48.770;9.212;2023-08-07T14:28:21;22.60;99.90
285;DHT22;127;48.770;9.212;2023-08-07T14:30:57;21.80;99.90
285;DHT22;127;48.770;9.212;2023-08-07T14:33:28;21.00;99.90
285;DHT22;127;48.770;9.212;2023-08-07T14:36:05;20.30;99.90
285;DHT22;127;48.770;9.212;2023-08-07T14:38:55;20.00;99.90
285;DHT22;127;48.770;9.212;2023-08-07T14:41:24;19.40;99.90
285;DHT22;127;48.770;9.212;2023-08-07T14:44:03;18.70;99.90
285;DHT22;127;48.770;9.212;2023-08-07T14:46:47;18.50;99.90
285;DHT22;127;48.770;9.212;2023-08-07T14:49:18;18.80;99.90
285;DHT22;127;48.770;9.212;2023-08-07T14:51:51;19.40;99.90
285;DHT22;127;48.770;9.212;2023-08-07T14:54:24;19.30;99.90
285;DHT22;127;48.770;9.212;2023-08-07T14:56:56;19.30;99.90
285;DHT22;127;48.770;9.212;2023-08-07T14:59:29;19.90;99.90
285;DHT22;127;48.770;9.212;2023-08-07T15:02:20;20.90;99.90
285;DHT22;127;48.770;9.212;2023-08-07T15:12:15;21.70;99.90
285;DHT22;127;48.770;9.212;2023-08-07T15:14:48;22.80;99.90
285;DHT22;127;48.770;9.212;2023-08-07T15:17:33;22.40;99.90
285;DHT22;127;48.770;9.212;2023-08-07T15:20:11;21.40;99.90
285;DHT22;127;48.770;9.212;2023-08-07T15:22:44;20.10;99.90
285;DHT22;127;48.770;9.212;2023-08-07T15:25:22;19.70;99.90
285;DHT22;127;48.770;9.212;2023-08-07T15:28:11;19.50;99.90
285;DHT22;127;48.770;9.212;2023-08-07T15:31:10;18.90;99.90
285;DHT22;127;48.770;9.212;2023-08-07T15:33:56;18.70;99.90
285;DHT22;127;48.770;9.212;2023-08-07T15:36:53;18.60;99.90
285;DHT22;127;48.770;9.212;2023-08-07T15:39:52;18.70;99.90
285;DHT22;127;48.770;9.212;2023-08-07T15:42:35;18.70;99.90
285;DHT22;127;48.770;9.212;2023-08-07T15:45:18;18.60;99.90
285;DHT22;127;48.770;9.212;2023-08-07T15:48:10;18.70;99.90
285;DHT22;127;48.770;9.212;2023-08-07T15:50:43;18.80;99.90
285;DHT22;127;48.770;9.212;2023-08-07T15:53:14;18.60;99.90
285;DHT22;127;48.770;9.212;2023-08-07T15:55:51;19.10;99.90
285;DHT22;127;48.770;9.212;2023-08-07T15:58:22;19.80;99.90
285;DHT22;127;48.770;9.212;2023-08-07T16:00:59;20.20;99.90
285;DHT22;127;48.770;9.212;2023-08-07T16:03:47;20.40;99.90
285;DHT22;127;48.770;9.212;2023-08-07T16:06:39;20.30;99.90
285;DHT22;127;48.770;9.212;2023-08-07T16:09:11;20.00;99.90
285;DHT22;127;48.770;9.212;2023-08-07T16:11:58;19.70;99.90
285;DHT22;127;48.770;9.212;2023-08-07T16:14:27;19.30;99.90
285;DHT22;127;48.770;9.212;2023-08-07T16:17:26;19.10;99.90
285;DHT22;127;48.770;9.212;2023-08-07T16:20:17;20.00;99.90
285;DHT22;127;48.770;9.212;2023-08-07T16:22:58;21.00;99.90
285;DHT22;127;48.770;9.212;2023-08-07T16:25:27;21.40;99.90
285;DHT22;127;48.770;9.212;2023-08-07T16:45:11;21.50;99.90
285;DHT22;127;48.770;9.212;2023-08-07T16:47:48;21.30;99.90
285;DHT22;127;48.770;9.212;2023-08-07T16:54:23;20.00;99.90
285;DHT22;127;48.770;9.212;2023-08-07T16:57:16;19.50;99.90
285;DHT22;127;48.770;9.212;2023-08-07T17:00:54;19.30;99.90
285;DHT22;127;48.770;9.212;2023-08-07T17:06:16;18.40;99.90
285;DHT22;127;48.770;9.212;2023-08-07T17:09:02;18.10;99.90
285;DHT22;127;48.770;9.212;2023-08-07T17:11:38;18.40;99.90
285;DHT22;127;48.770;9.212;2023-08-07T17:14:39;18.60;99.90
285;DHT22;127;48.770;9.212;2023-08-07T17:17:30;18.80;99.90
285;DHT22;127;48.770;9.212;2023-08-07T17:20:07;18.70;99.90
285;DHT22;127;48.770;9.212;2023-08-07T17:22:48;18.70;99.90
285;DHT22;127;48.770;9.212;2023-08-07T17:25:42;18.80;99.90
285;DHT22;127;48.770;9.212;2023-08-07T17:28:28;18.40;99.90
285;DHT22;127;48.770;9.212;2023-08-07T17:34:19;17.90;99.90
285;DHT22;127;48.770;9.212;2023-08-07T17:36:54;18.20;99.90
285;DHT22;127;48.770;9.212;2023-08-07T17:39:29;18.50;99.90
285;DHT22;127;48.770;9.212;2023-08-07T17:42:12;18.60;99.90
285;DHT22;127;48.770;9.212;2023-08-07T17:45:42;18.90;99.90
285;DHT22;127;48.770;9.212;2023-08-07T17:47:56;19.10;99.90
285;DHT22;127;48.770;9.212;2023-08-07T17:50:44;18.70;99.90
285;DHT22;127;48.770;9.212;2023-08-07T17:53:28;18.80;99.90
285;DHT22;127;48.770;9.212;2023-08-07T17:55:58;19.00;99.90
285;DHT22;127;48.770;9.212;2023-08-07T17:58:33;18.80;99.90
285;DHT22;127;48.770;9.212;2023-08-07T18:01:08;18.80;99.90
285;DHT22;127;48.770;9.212;2023-08-07T18:03:41;18.80;99.90
285;DHT22;127;48.770;9.212;2023-08-07T18:06:25;18.60;99.90
285;DHT22;127;48.770;9.212;2023-08-07T18:09:13;18.60;99.90
285;DHT22;127;48.770;9.212;2023-08-07T18:11:49;18.50;99.90
285;DHT22;127;48.770;9.212;2023-08-07T18:14:29;18.40;99.90
285;DHT22;127;48.770;9.212;2023-08-07T18:17:03;18.40;99.90
285;DHT22;127;48.770;9.212;2023-08-07T18:20:03;18.30;99.90
285;DHT22;127;48.770;9.212;2023-08-07T18:22:36;17.20;99.90
285;DHT22;127;48.770;9.212;2023-08-07T18:25:06;17.60;99.90
285;DHT22;127;48.770;9.212;2023-08-07T18:27:35;17.30;99.90
285;DHT22;127;48.770;9.212;2023-08-07T18:30:33;17.10;99.90
285;DHT22;127;48.770;9.212;2023-08-07T18:33:13;17.00;99.90
285;DHT22;127;48.770;9.212;2023-08-07T18:35:43;16.70;99.90
285;DHT22;127;48.770;9.212;2023-08-07T18:38:18;16.60;99.90
285;DHT22;127;48.770;9.212;2023-08-07T18:40:49;16.50;99.90
285;DHT22;127;48.770;9.212;2023-08-07T18:43:18;16.30;99.90
285;DHT22;127;48.770;9.212;2023-08-07T18:45:47;16.20;99.90
285;DHT22;127;48.770;9.212;2023-08-07T18:48:29;16.00;99.90
285;DHT22;127;48.770;9.212;2023-08-07T18:50:58;16.10;99.90
285;DHT22;127;48.770;9.212;2023-08-07T18:53:37;16.00;99.90
285;DHT22;127;48.770;9.212;2023-08-07T18:56:11;16.00;99.90
285;DHT22;127;48.770;9.212;2023-08-07T18:58:40;15.80;99.90
285;DHT22;127;48.770;9.212;2023-08-07T19:01:13;15.80;99.90
285;DHT22;127;48.770;9.212;2023-08-07T19:03:46;15.80;99.90
285;DHT22;127;48.770;9.212;2023-08-07T19:06:16;15.70;99.90
285;DHT22;127;48.770;9.212;2023-08-07T19:09:06;15.80;99.90
285;DHT22;127;48.770;9.212;2023-08-07T19:11:55;15.80;99.90
285;DHT22;127;48.770;9.212;2023-08-07T19:14:30;15.80;99.90
285;DHT22;127;48.770;9.212;2023-08-07T19:17:01;15.70;99.90
285;DHT22;127;48.770;9.212;2023-08-07T19:19:31;15.80;99.90
285;DHT22;127;48.770;9.212;2023-08-07T19:22:08;15.70;99.90